createdAt,value
2018-06-13T00:00:04.607Z,69.87
2018-06-13T00:00:30.773Z,69.3
2018-06-13T00:00:56.915Z,69.68
2018-06-13T00:01:23.073Z,69.68
2018-06-13T00:01:49.216Z,69.68
2018-06-13T00:02:15.352Z,69.68
2018-06-13T00:02:41.492Z,69.78
2018-06-13T00:03:07.658Z,69.4
2018-06-13T00:03:33.794Z,69.87
2018-06-13T00:03:59.935Z,69.78
2018-06-13T00:04:26.097Z,69.78
2018-06-13T00:04:52.229Z,69.59
2018-06-13T00:05:18.375Z,69.68
2018-06-13T00:05:44.507Z,69.4
2018-06-13T00:06:10.672Z,69.87
2018-06-13T00:06:36.816Z,69.59
2018-06-13T00:07:02.953Z,69.4
2018-06-13T00:07:29.096Z,69.87
2018-06-13T00:07:55.231Z,69.97
2018-06-13T00:08:21.371Z,69.68
2018-06-13T00:08:47.527Z,69.4
2018-06-13T00:09:13.715Z,69.4
2018-06-13T00:09:39.979Z,69.2
2018-06-13T00:10:06.118Z,69.68
2018-06-13T00:10:32.254Z,69.87
2018-06-13T00:10:58.419Z,69.68
2018-06-13T00:11:24.555Z,69.68
2018-06-13T00:11:50.691Z,69.97
2018-06-13T00:12:16.836Z,69.97
2018-06-13T00:12:42.996Z,69.97
2018-06-13T00:13:09.180Z,69.87
2018-06-13T00:13:35.318Z,69.97
2018-06-13T00:14:01.480Z,70.17
2018-06-13T00:14:27.665Z,70.17
2018-06-13T00:14:53.797Z,69.78
2018-06-13T00:15:19.962Z,69.87
2018-06-13T00:15:46.104Z,70.07
2018-06-13T00:16:12.242Z,70.17
2018-06-13T00:16:38.387Z,69.97
2018-06-13T00:17:04.517Z,69.87
2018-06-13T00:17:30.685Z,69.97
2018-06-13T00:17:56.855Z,69.97
2018-06-13T00:18:22.995Z,69.97
2018-06-13T00:18:49.131Z,70.07
2018-06-13T00:19:15.275Z,70.07
2018-06-13T00:19:41.419Z,70.07
2018-06-13T00:20:07.557Z,70.17
2018-06-13T00:20:33.699Z,69.87
2018-06-13T00:20:59.839Z,69.97
2018-06-13T00:21:26.004Z,70.07
2018-06-13T00:21:52.135Z,70.07
2018-06-13T00:22:18.278Z,69.87
2018-06-13T00:22:44.419Z,69.68
2018-06-13T00:23:10.565Z,69.87
2018-06-13T00:23:36.699Z,69.97
2018-06-13T00:24:02.849Z,69.97
2018-06-13T00:24:29.010Z,69.97
2018-06-13T00:24:55.145Z,70.84
2018-06-13T00:25:21.285Z,70.64
2018-06-13T00:25:47.450Z,70.74
2018-06-13T00:26:13.598Z,70.64
2018-06-13T00:26:39.777Z,70.36
2018-06-13T00:27:05.941Z,70.36
2018-06-13T00:27:32.085Z,70.45
2018-06-13T00:27:58.218Z,70.55
2018-06-13T00:28:24.409Z,70.74
2018-06-13T00:28:50.497Z,70.26
2018-06-13T00:29:16.635Z,70.64
2018-06-13T00:29:42.796Z,70.64
2018-06-13T00:30:08.940Z,70.36
2018-06-13T00:30:35.079Z,70.45
2018-06-13T00:31:01.217Z,70.64
2018-06-13T00:31:27.356Z,70.26
2018-06-13T00:31:53.532Z,70.45
2018-06-13T00:32:19.669Z,70.84
2018-06-13T00:32:45.833Z,70.84
2018-06-13T00:33:11.970Z,70.93
2018-06-13T00:33:38.135Z,70.93
2018-06-13T00:34:04.297Z,70.74
2018-06-13T00:34:30.439Z,70.84
2018-06-13T00:34:56.578Z,71.22
2018-06-13T00:35:22.717Z,71.12
2018-06-13T00:35:48.857Z,71.22
2018-06-13T00:36:15.002Z,71.31
2018-06-13T00:36:41.135Z,70.84
2018-06-13T00:37:07.327Z,71.41
2018-06-13T00:37:33.471Z,71.12
2018-06-13T00:37:59.601Z,71.7
2018-06-13T00:38:25.764Z,71.8
2018-06-13T00:38:51.922Z,71.22
2018-06-13T00:39:18.040Z,71.03
2018-06-13T00:39:44.182Z,71.31
2018-06-13T00:40:10.321Z,70.84
2018-06-13T00:40:36.455Z,71.22
2018-06-13T00:41:02.615Z,71.22
2018-06-13T00:41:28.759Z,71.31
2018-06-13T00:41:54.897Z,71.41
2018-06-13T00:42:21.051Z,71.22
2018-06-13T00:42:47.213Z,71.51
2018-06-13T00:43:13.352Z,71.8
2018-06-13T00:43:39.491Z,71.51
2018-06-13T00:44:05.617Z,71.41
2018-06-13T00:44:31.762Z,70.93
2018-06-13T00:44:57.922Z,71.22
2018-06-13T00:45:24.086Z,71.22
2018-06-13T00:45:50.258Z,71.12
2018-06-13T00:46:16.391Z,71.51
2018-06-13T00:46:42.534Z,71.51
2018-06-13T00:47:08.665Z,71.89
2018-06-13T00:47:34.807Z,71.7
2018-06-13T00:48:00.944Z,71.31
2018-06-13T00:48:27.114Z,71.41
2018-06-13T00:48:53.251Z,71.61
2018-06-13T00:49:19.398Z,71.31
2018-06-13T00:49:45.538Z,71.31
2018-06-13T00:50:11.697Z,71.41
2018-06-13T00:50:37.837Z,71.41
2018-06-13T00:51:03.975Z,71.03
2018-06-13T00:51:30.114Z,71.51
2018-06-13T00:51:56.248Z,71.51
2018-06-13T00:52:22.401Z,71.41
2018-06-13T00:52:48.537Z,71.51
2018-06-13T00:53:14.678Z,71.22
2018-06-13T00:53:40.816Z,71.51
2018-06-13T00:54:06.950Z,71.31
2018-06-13T00:54:33.095Z,71.8
2018-06-13T00:54:59.239Z,71.7
2018-06-13T00:55:25.375Z,71.31
2018-06-13T00:55:51.509Z,71.31
2018-06-13T00:56:17.647Z,71.31
2018-06-13T00:56:43.783Z,71.22
2018-06-13T00:57:09.924Z,71.22
2018-06-13T00:57:36.220Z,71.41
2018-06-13T00:58:02.381Z,71.12
2018-06-13T00:58:28.528Z,71.12
2018-06-13T00:58:54.668Z,71.7
2018-06-13T00:59:20.826Z,71.41
2018-06-13T00:59:46.987Z,71.51
2018-06-13T01:00:13.130Z,71.12
2018-06-13T01:00:39.273Z,71.22
2018-06-13T01:01:05.418Z,71.31
2018-06-13T01:01:31.554Z,71.12
2018-06-13T01:01:57.716Z,71.12
2018-06-13T01:02:23.858Z,71.31
2018-06-13T01:02:49.998Z,71.31
2018-06-13T01:03:16.190Z,71.31
2018-06-13T01:03:42.348Z,71.51
2018-06-13T01:04:08.492Z,71.61
2018-06-13T01:04:34.624Z,71.89
2018-06-13T01:05:00.791Z,71.8
2018-06-13T01:05:26.927Z,71.8
2018-06-13T01:05:53.061Z,71.86
2018-06-13T01:06:19.204Z,72.05
2018-06-13T01:06:45.350Z,71.95
2018-06-13T01:07:11.489Z,71.89
2018-06-13T01:07:37.624Z,71.8
2018-06-13T01:08:03.764Z,71.7
2018-06-13T01:08:29.923Z,71.66
2018-06-13T01:08:56.063Z,72.08
2018-06-13T01:09:22.229Z,71.89
2018-06-13T01:09:48.358Z,72.18
2018-06-13T01:10:14.516Z,71.98
2018-06-13T01:10:40.663Z,70.84
2018-06-13T01:11:06.793Z,71.41
2018-06-13T01:11:32.964Z,71.51
2018-06-13T01:11:59.103Z,71.41
2018-06-13T01:12:25.233Z,71.51
2018-06-13T01:12:51.395Z,71.31
2018-06-13T01:13:17.537Z,71.61
2018-06-13T01:13:43.681Z,71.31
2018-06-13T01:14:09.825Z,71.41
2018-06-13T01:14:35.967Z,71.41
2018-06-13T01:15:02.105Z,71.22
2018-06-13T01:15:28.269Z,71.41
2018-06-13T01:15:54.404Z,71.61
2018-06-13T01:16:20.542Z,71.61
2018-06-13T01:16:46.687Z,71.76
2018-06-13T01:17:12.825Z,71.7
2018-06-13T01:17:38.967Z,71.7
2018-06-13T01:18:05.105Z,72.18
2018-06-13T01:18:31.287Z,71.7
2018-06-13T01:18:57.427Z,71.89
2018-06-13T01:19:23.570Z,71.89
2018-06-13T01:19:49.711Z,71.89
2018-06-13T01:20:15.848Z,72.18
2018-06-13T01:20:41.990Z,71.8
2018-06-13T01:21:08.175Z,71.22
2018-06-13T01:21:34.310Z,71.51
2018-06-13T01:22:00.451Z,71.31
2018-06-13T01:22:26.593Z,71.66
2018-06-13T01:22:52.738Z,71.89
2018-06-13T01:23:18.877Z,71.51
2018-06-13T01:23:45.041Z,71.09
2018-06-13T01:24:11.209Z,71.28
2018-06-13T01:24:37.345Z,71.28
2018-06-13T01:25:03.487Z,71.28
2018-06-13T01:25:29.658Z,71.76
2018-06-13T01:25:55.793Z,71.66
2018-06-13T01:26:21.980Z,71.95
2018-06-13T01:26:48.120Z,71.51
2018-06-13T01:27:14.255Z,71.86
2018-06-13T01:27:40.401Z,71.76
2018-06-13T01:28:06.538Z,71.86
2018-06-13T01:28:32.673Z,71.76
2018-06-13T01:28:58.816Z,71.31
2018-06-13T01:29:24.970Z,71.7
2018-06-13T01:29:51.111Z,71.12
2018-06-13T01:30:17.266Z,71.8
2018-06-13T01:30:43.407Z,71.57
2018-06-13T01:31:09.543Z,71.28
2018-06-13T01:31:35.685Z,71.86
2018-06-13T01:32:01.827Z,71.95
2018-06-13T01:32:27.975Z,71.76
2018-06-13T01:32:54.136Z,70.99
2018-06-13T01:33:20.302Z,71.7
2018-06-13T01:33:46.459Z,71.76
2018-06-13T01:34:12.577Z,71.76
2018-06-13T01:34:38.716Z,71.47
2018-06-13T01:35:04.861Z,71.76
2018-06-13T01:35:30.998Z,72.14
2018-06-13T01:35:57.137Z,71.86
2018-06-13T01:36:23.279Z,71.76
2018-06-13T01:36:49.414Z,71.66
2018-06-13T01:37:15.573Z,71.66
2018-06-13T01:37:41.710Z,71.76
2018-06-13T01:38:07.877Z,72.05
2018-06-13T01:38:34.020Z,70.99
2018-06-13T01:39:00.165Z,71.76
2018-06-13T01:39:26.297Z,71.76
2018-06-13T01:39:52.440Z,71.66
2018-06-13T01:40:18.577Z,71.37
2018-06-13T01:40:44.742Z,71.66
2018-06-13T01:41:10.906Z,71.47
2018-06-13T01:41:37.053Z,70.99
2018-06-13T01:42:03.218Z,70.99
2018-06-13T01:42:29.385Z,71.76
2018-06-13T01:42:55.510Z,71.47
2018-06-13T01:43:21.667Z,71.28
2018-06-13T01:43:47.835Z,71.66
2018-06-13T01:44:13.972Z,71.66
2018-06-13T01:44:40.111Z,71.37
2018-06-13T01:45:06.252Z,71.28
2018-06-13T01:45:32.394Z,71.37
2018-06-13T01:45:58.535Z,71.37
2018-06-13T01:46:24.669Z,71.19
2018-06-13T01:46:50.807Z,71.37
2018-06-13T01:47:16.949Z,71.19
2018-06-13T01:47:43.089Z,71.57
2018-06-13T01:48:09.224Z,71.28
2018-06-13T01:48:35.366Z,71.19
2018-06-13T01:49:01.501Z,71.76
2018-06-13T01:49:27.637Z,71.37
2018-06-13T01:49:53.776Z,71.47
2018-06-13T01:50:19.917Z,71.37
2018-06-13T01:50:46.056Z,71.47
2018-06-13T01:51:12.221Z,71.19
2018-06-13T01:51:38.359Z,71.47
2018-06-13T01:52:04.496Z,70.99
2018-06-13T01:52:30.630Z,71.47
2018-06-13T01:52:56.802Z,71.37
2018-06-13T01:53:22.939Z,71.19
2018-06-13T01:53:49.110Z,71.37
2018-06-13T01:54:15.247Z,71.37
2018-06-13T01:54:41.393Z,71.09
2018-06-13T01:55:07.521Z,71.57
2018-06-13T01:55:33.664Z,71.47
2018-06-13T01:55:59.806Z,71.37
2018-06-13T01:56:25.948Z,71.66
2018-06-13T01:56:52.113Z,71.66
2018-06-13T01:57:18.255Z,71.66
2018-06-13T01:57:44.393Z,71.66
2018-06-13T01:58:10.526Z,71.86
2018-06-13T01:58:36.663Z,71.47
2018-06-13T01:59:02.810Z,71.28
2018-06-13T01:59:28.946Z,71.76
2018-06-13T01:59:55.085Z,71.86
2018-06-13T02:00:21.226Z,71.66
2018-06-13T02:00:47.374Z,71.28
2018-06-13T02:01:13.506Z,72.14
2018-06-13T02:01:39.642Z,71.86
2018-06-13T02:02:05.787Z,71.19
2018-06-13T02:02:31.921Z,71.47
2018-06-13T02:02:58.066Z,71.86
2018-06-13T02:03:24.205Z,71.37
2018-06-13T02:03:50.368Z,71.19
2018-06-13T02:04:16.504Z,71.76
2018-06-13T02:04:42.643Z,72.14
2018-06-13T02:05:08.780Z,71.28
2018-06-13T02:05:34.918Z,71.47
2018-06-13T02:06:01.061Z,71.76
2018-06-13T02:06:27.193Z,71.66
2018-06-13T02:06:53.328Z,71.57
2018-06-13T02:07:19.475Z,72.14
2018-06-13T02:07:45.622Z,71.37
2018-06-13T02:08:11.812Z,72.05
2018-06-13T02:08:37.969Z,71.47
2018-06-13T02:09:04.105Z,71.76
2018-06-13T02:09:30.243Z,71.76
2018-06-13T02:09:56.383Z,71.66
2018-06-13T02:10:22.526Z,71.66
2018-06-13T02:10:48.665Z,71.86
2018-06-13T02:11:14.807Z,71.66
2018-06-13T02:11:40.973Z,71.95
2018-06-13T02:12:07.142Z,71.86
2018-06-13T02:12:33.281Z,71.66
2018-06-13T02:12:59.445Z,71.66
2018-06-13T02:13:25.617Z,71.76
2018-06-13T02:13:51.756Z,71.76
2018-06-13T02:14:17.891Z,71.86
2018-06-13T02:14:44.062Z,71.76
2018-06-13T02:15:10.199Z,71.76
2018-06-13T02:15:36.336Z,71.57
2018-06-13T02:16:02.473Z,72.24
2018-06-13T02:16:28.643Z,72.33
2018-06-13T02:16:54.786Z,71.86
2018-06-13T02:17:20.927Z,71.76
2018-06-13T02:17:47.066Z,72.33
2018-06-13T02:18:13.201Z,72.24
2018-06-13T02:18:39.338Z,72.33
2018-06-13T02:19:05.499Z,72.05
2018-06-13T02:19:31.638Z,71.86
2018-06-13T02:19:57.834Z,72.43
2018-06-13T02:20:23.971Z,72.53
2018-06-13T02:20:50.108Z,71.95
2018-06-13T02:21:16.261Z,72.05
2018-06-13T02:21:42.683Z,72.43
2018-06-13T02:22:09.222Z,72.05
2018-06-13T02:22:36.145Z,71.92
2018-06-13T02:23:02.655Z,72.81
2018-06-13T02:23:28.793Z,72.91
2018-06-13T02:23:54.960Z,72.59
2018-06-13T02:24:21.091Z,72.43
2018-06-13T02:24:47.233Z,72.59
2018-06-13T02:25:13.368Z,72.81
2018-06-13T02:25:39.507Z,72.81
2018-06-13T02:26:05.651Z,72.14
2018-06-13T02:26:31.790Z,72.14
2018-06-13T02:26:57.925Z,72.33
2018-06-13T02:27:24.115Z,72.39
2018-06-13T02:27:50.210Z,72.43
2018-06-13T02:28:16.342Z,72.05
2018-06-13T02:28:42.487Z,72.33
2018-06-13T02:29:08.631Z,72.33
2018-06-13T02:29:34.759Z,72.24
2018-06-13T02:30:00.906Z,72.3
2018-06-13T02:30:27.040Z,72.14
2018-06-13T02:30:53.213Z,72.33
2018-06-13T02:31:19.366Z,72.24
2018-06-13T02:31:45.537Z,72.24
2018-06-13T02:32:11.717Z,72.24
2018-06-13T02:32:37.876Z,71.95
2018-06-13T02:33:04.032Z,71.76
2018-06-13T02:33:30.170Z,72.14
2018-06-13T02:33:56.334Z,72.14
2018-06-13T02:34:22.497Z,71.76
2018-06-13T02:34:48.643Z,71.72
2018-06-13T02:35:14.826Z,71.25
2018-06-13T02:35:41.040Z,71.57
2018-06-13T02:36:07.201Z,71.72
2018-06-13T02:36:33.332Z,71.34
2018-06-13T02:36:59.516Z,71.66
2018-06-13T02:37:25.658Z,71.86
2018-06-13T02:37:51.843Z,70.99
2018-06-13T02:38:18.007Z,71.47
2018-06-13T02:38:44.147Z,71.86
2018-06-13T02:39:10.308Z,71.57
2018-06-13T02:39:36.489Z,71.86
2018-06-13T02:40:02.647Z,71.57
2018-06-13T02:40:28.853Z,71.66
2018-06-13T02:40:55.017Z,71.66
2018-06-13T02:41:21.162Z,71.37
2018-06-13T02:41:47.295Z,71.66
2018-06-13T02:42:13.437Z,71.95
2018-06-13T02:42:39.632Z,70.96
2018-06-13T02:43:05.791Z,71.66
2018-06-13T02:43:31.931Z,71.28
2018-06-13T02:43:58.065Z,71.37
2018-06-13T02:44:24.209Z,72.05
2018-06-13T02:44:50.397Z,71.95
2018-06-13T02:45:16.529Z,71.66
2018-06-13T02:45:42.695Z,71.76
2018-06-13T02:46:08.876Z,71.86
2018-06-13T02:46:35.017Z,71.76
2018-06-13T02:47:01.191Z,71.66
2018-06-13T02:47:27.350Z,71.86
2018-06-13T02:47:53.488Z,72.05
2018-06-13T02:48:19.630Z,71.66
2018-06-13T02:48:45.775Z,71.86
2018-06-13T02:49:11.937Z,71.57
2018-06-13T02:49:38.088Z,71.76
2018-06-13T02:50:04.246Z,71.66
2018-06-13T02:50:30.377Z,71.53
2018-06-13T02:50:56.522Z,71.66
2018-06-13T02:51:22.688Z,71.76
2018-06-13T02:51:48.884Z,71.82
2018-06-13T02:52:15.041Z,71.47
2018-06-13T02:52:41.185Z,71.66
2018-06-13T02:53:07.344Z,71.25
2018-06-13T02:53:33.509Z,71.47
2018-06-13T02:53:59.664Z,71.86
2018-06-13T02:54:25.831Z,71.76
2018-06-13T02:54:51.992Z,71.95
2018-06-13T02:55:18.162Z,71.86
2018-06-13T02:55:44.297Z,72.39
2018-06-13T02:56:10.441Z,72.24
2018-06-13T02:56:36.570Z,72.24
2018-06-13T02:57:02.764Z,72.05
2018-06-13T02:57:28.910Z,72.59
2018-06-13T02:57:55.051Z,72.33
2018-06-13T02:58:21.177Z,72.05
2018-06-13T02:58:47.355Z,72.43
2018-06-13T02:59:13.669Z,72.05
2018-06-13T02:59:39.892Z,72.3
2018-06-13T03:00:06.083Z,72.49
2018-06-13T03:00:32.386Z,72.59
2018-06-13T03:00:58.714Z,72.3
2018-06-13T03:01:24.930Z,72.81
2018-06-13T03:01:51.278Z,72.49
2018-06-13T03:02:17.579Z,72.81
2018-06-13T03:02:43.745Z,72.81
2018-06-13T03:03:09.911Z,72.43
2018-06-13T03:03:36.047Z,72.39
2018-06-13T03:04:02.188Z,72.63
2018-06-13T03:04:28.355Z,72.63
2018-06-13T03:04:54.520Z,72.05
2018-06-13T03:05:20.707Z,72.43
2018-06-13T03:05:46.870Z,72.72
2018-06-13T03:06:13.006Z,72.63
2018-06-13T03:06:39.173Z,72.59
2018-06-13T03:07:05.311Z,72.72
2018-06-13T03:07:31.503Z,72.24
2018-06-13T03:07:57.641Z,72.43
2018-06-13T03:08:23.805Z,72.49
2018-06-13T03:08:49.961Z,72.78
2018-06-13T03:09:16.104Z,72.78
2018-06-13T03:09:42.240Z,72.78
2018-06-13T03:10:08.433Z,72.78
2018-06-13T03:10:34.575Z,72.68
2018-06-13T03:11:00.710Z,73.07
2018-06-13T03:11:26.902Z,72.88
2018-06-13T03:11:53.065Z,73.35
2018-06-13T03:12:19.202Z,72.91
2018-06-13T03:12:45.346Z,73.07
2018-06-13T03:13:11.512Z,73.07
2018-06-13T03:13:37.696Z,73.16
2018-06-13T03:14:03.836Z,72.97
2018-06-13T03:14:30.001Z,73.26
2018-06-13T03:14:56.183Z,73.07
2018-06-13T03:15:22.323Z,73.55
2018-06-13T03:15:48.507Z,73.07
2018-06-13T03:16:14.700Z,73.26
2018-06-13T03:16:40.826Z,72.97
2018-06-13T03:17:07.016Z,72.88
2018-06-13T03:17:33.177Z,73.26
2018-06-13T03:17:59.317Z,72.88
2018-06-13T03:18:25.460Z,72.88
2018-06-13T03:18:51.593Z,73.1
2018-06-13T03:19:17.759Z,72.97
2018-06-13T03:19:43.927Z,73.35
2018-06-13T03:20:10.067Z,73.07
2018-06-13T03:20:36.233Z,72.88
2018-06-13T03:21:02.397Z,73.45
2018-06-13T03:21:28.555Z,73.26
2018-06-13T03:21:54.715Z,73.74
2018-06-13T03:22:20.852Z,73.55
2018-06-13T03:22:46.992Z,73.83
2018-06-13T03:23:13.127Z,73.65
2018-06-13T03:23:39.299Z,73.93
2018-06-13T03:24:05.490Z,73.93
2018-06-13T03:24:31.626Z,73.93
2018-06-13T03:24:57.770Z,74.02
2018-06-13T03:25:23.914Z,73.93
2018-06-13T03:25:50.053Z,74.6
2018-06-13T03:26:16.197Z,74.12
2018-06-13T03:26:42.340Z,74.12
2018-06-13T03:27:08.476Z,74.22
2018-06-13T03:27:34.650Z,73.93
2018-06-13T03:28:00.788Z,74.12
2018-06-13T03:28:26.924Z,74.51
2018-06-13T03:28:53.068Z,74.69
2018-06-13T03:29:19.226Z,74.89
2018-06-13T03:29:45.388Z,74.69
2018-06-13T03:30:11.550Z,74.6
2018-06-13T03:30:37.721Z,74.6
2018-06-13T03:31:03.861Z,75.08
2018-06-13T03:31:30.026Z,74.51
2018-06-13T03:31:56.177Z,75.37
2018-06-13T03:32:22.370Z,75.37
2018-06-13T03:32:48.531Z,75.18
2018-06-13T03:33:14.672Z,74.98
2018-06-13T03:33:40.811Z,75.46
2018-06-13T03:34:06.959Z,74.98
2018-06-13T03:34:33.095Z,75.56
2018-06-13T03:34:59.242Z,75.46
2018-06-13T03:35:25.397Z,75.37
2018-06-13T03:35:51.565Z,75.46
2018-06-13T03:36:17.698Z,75.46
2018-06-13T03:36:43.834Z,75.56
2018-06-13T03:37:09.973Z,75.37
2018-06-13T03:37:36.113Z,75.56
2018-06-13T03:38:02.251Z,75.27
2018-06-13T03:38:28.392Z,75.37
2018-06-13T03:38:54.528Z,75.37
2018-06-13T03:39:20.670Z,75.27
2018-06-13T03:39:46.830Z,75.27
2018-06-13T03:40:12.969Z,75.37
2018-06-13T03:40:39.122Z,75.18
2018-06-13T03:41:05.360Z,75.27
2018-06-13T03:41:31.444Z,75.56
2018-06-13T03:41:57.590Z,75.27
2018-06-13T03:42:23.733Z,75.18
2018-06-13T03:42:49.862Z,75.56
2018-06-13T03:43:16.001Z,75.37
2018-06-13T03:43:42.167Z,75.37
2018-06-13T03:44:08.307Z,75.37
2018-06-13T03:44:34.442Z,75.27
2018-06-13T03:45:00.578Z,75.37
2018-06-13T03:45:26.745Z,75.37
2018-06-13T03:45:52.885Z,75.46
2018-06-13T03:46:19.018Z,75.18
2018-06-13T03:46:45.161Z,75.56
2018-06-13T03:47:11.327Z,75.27
2018-06-13T03:47:37.466Z,75.18
2018-06-13T03:48:03.604Z,74.98
2018-06-13T03:48:29.750Z,75.08
2018-06-13T03:48:55.881Z,74.98
2018-06-13T03:49:22.020Z,74.98
2018-06-13T03:49:48.164Z,74.79
2018-06-13T03:50:14.303Z,74.98
2018-06-13T03:50:40.447Z,74.98
2018-06-13T03:51:06.582Z,74.89
2018-06-13T03:51:32.747Z,74.89
2018-06-13T03:51:58.885Z,74.89
2018-06-13T03:52:25.029Z,75.46
2018-06-13T03:52:51.163Z,74.89
2018-06-13T03:53:17.297Z,75.56
2018-06-13T03:53:43.435Z,74.98
2018-06-13T03:54:09.573Z,75.37
2018-06-13T03:54:35.713Z,75.27
2018-06-13T03:55:01.855Z,75.27
2018-06-13T03:55:27.992Z,75.46
2018-06-13T03:55:54.156Z,75.37
2018-06-13T03:56:20.321Z,75.37
2018-06-13T03:56:46.460Z,75.75
2018-06-13T03:57:12.598Z,75.65
2018-06-13T03:57:38.742Z,75.75
2018-06-13T03:58:04.882Z,75.95
2018-06-13T03:58:31.047Z,75.56
2018-06-13T03:58:57.185Z,75.46
2018-06-13T03:59:23.356Z,75.56
2018-06-13T03:59:49.494Z,75.37
2018-06-13T04:00:15.634Z,75.27
2018-06-13T04:00:41.773Z,75.37
2018-06-13T04:01:07.918Z,75.37
2018-06-13T04:01:34.056Z,75.46
2018-06-13T04:02:00.210Z,75.56
2018-06-13T04:02:26.351Z,75.56
2018-06-13T04:02:52.489Z,75.37
2018-06-13T04:03:18.634Z,75.65
2018-06-13T04:03:44.768Z,75.18
2018-06-13T04:04:10.900Z,75.27
2018-06-13T04:04:37.040Z,75.37
2018-06-13T04:05:03.189Z,75.75
2018-06-13T04:05:29.324Z,75.46
2018-06-13T04:05:55.485Z,75.56
2018-06-13T04:06:21.798Z,75.37
2018-06-13T04:06:47.936Z,74.89
2018-06-13T04:07:14.178Z,74.98
2018-06-13T04:07:40.243Z,75.18
2018-06-13T04:08:06.378Z,74.98
2018-06-13T04:08:32.523Z,74.79
2018-06-13T04:08:58.672Z,75.08
2018-06-13T04:09:24.801Z,75.08
2018-06-13T04:09:50.939Z,74.79
2018-06-13T04:10:17.107Z,75.18
2018-06-13T04:10:43.248Z,74.79
2018-06-13T04:11:09.386Z,74.98
2018-06-13T04:11:35.550Z,75.08
2018-06-13T04:12:01.712Z,75.37
2018-06-13T04:12:27.872Z,75.46
2018-06-13T04:12:54.010Z,74.69
2018-06-13T04:13:20.153Z,74.79
2018-06-13T04:13:46.333Z,75.08
2018-06-13T04:14:12.451Z,75.18
2018-06-13T04:14:38.642Z,74.79
2018-06-13T04:15:04.788Z,74.89
2018-06-13T04:15:30.948Z,74.89
2018-06-13T04:15:57.087Z,74.79
2018-06-13T04:16:23.230Z,74.89
2018-06-13T04:16:49.358Z,74.89
2018-06-13T04:17:15.502Z,74.89
2018-06-13T04:17:41.635Z,75.18
2018-06-13T04:18:07.775Z,74.79
2018-06-13T04:18:33.941Z,75.18
2018-06-13T04:19:00.081Z,74.89
2018-06-13T04:19:26.221Z,75.08
2018-06-13T04:19:52.360Z,74.89
2018-06-13T04:20:18.498Z,74.89
2018-06-13T04:20:44.634Z,74.79
2018-06-13T04:21:10.768Z,74.89
2018-06-13T04:21:36.905Z,75.08
2018-06-13T04:22:03.043Z,75.08
2018-06-13T04:22:29.240Z,74.79
2018-06-13T04:22:55.400Z,75.37
2018-06-13T04:23:21.540Z,74.98
2018-06-13T04:23:47.681Z,74.98
2018-06-13T04:24:13.824Z,75.37
2018-06-13T04:24:39.977Z,74.6
2018-06-13T04:25:06.118Z,74.69
2018-06-13T04:25:32.256Z,74.69
2018-06-13T04:25:58.394Z,74.51
2018-06-13T04:26:24.536Z,74.6
2018-06-13T04:26:50.667Z,74.54
2018-06-13T04:27:16.820Z,74.44
2018-06-13T04:27:42.959Z,73.55
2018-06-13T04:28:09.098Z,73.87
2018-06-13T04:28:35.272Z,73.16
2018-06-13T04:29:01.390Z,73.45
2018-06-13T04:29:27.538Z,73.26
2018-06-13T04:29:53.676Z,73.35
2018-06-13T04:30:19.815Z,73.55
2018-06-13T04:30:45.959Z,74.22
2018-06-13T04:31:12.094Z,73.93
2018-06-13T04:31:38.243Z,73.26
2018-06-13T04:32:04.379Z,73.55
2018-06-13T04:32:30.525Z,73.83
2018-06-13T04:32:56.681Z,73.93
2018-06-13T04:33:22.821Z,73.74
2018-06-13T04:33:48.980Z,73.93
2018-06-13T04:34:15.118Z,74.31
2018-06-13T04:34:41.261Z,73.65
2018-06-13T04:35:07.404Z,74.02
2018-06-13T04:35:33.539Z,73.83
2018-06-13T04:35:59.702Z,73.45
2018-06-13T04:36:25.841Z,73.26
2018-06-13T04:36:51.980Z,73.26
2018-06-13T04:37:18.147Z,73.26
2018-06-13T04:37:44.285Z,73.45
2018-06-13T04:38:10.437Z,74.02
2018-06-13T04:38:36.593Z,73.93
2018-06-13T04:39:02.733Z,73.74
2018-06-13T04:39:28.866Z,73.45
2018-06-13T04:39:55.011Z,73.45
2018-06-13T04:40:21.145Z,73.93
2018-06-13T04:40:47.309Z,73.55
2018-06-13T04:41:13.449Z,74.02
2018-06-13T04:41:39.591Z,74.12
2018-06-13T04:42:05.756Z,74.31
2018-06-13T04:42:31.901Z,74.02
2018-06-13T04:42:58.036Z,73.83
2018-06-13T04:43:24.175Z,73.74
2018-06-13T04:43:50.313Z,73.83
2018-06-13T04:44:16.459Z,73.74
2018-06-13T04:44:42.624Z,73.93
2018-06-13T04:45:08.765Z,74.22
2018-06-13T04:45:34.902Z,74.12
2018-06-13T04:46:01.041Z,74.41
2018-06-13T04:46:27.184Z,74.89
2018-06-13T04:46:53.329Z,74.79
2018-06-13T04:47:19.468Z,74.69
2018-06-13T04:47:45.609Z,74.98
2018-06-13T04:48:11.749Z,74.79
2018-06-13T04:48:37.894Z,74.41
2018-06-13T04:49:04.056Z,74.79
2018-06-13T04:49:30.193Z,74.51
2018-06-13T04:49:56.336Z,74.79
2018-06-13T04:50:22.475Z,74.98
2018-06-13T04:50:48.613Z,75.18
2018-06-13T04:51:14.752Z,75.18
2018-06-13T04:51:40.914Z,74.51
2018-06-13T04:52:07.071Z,74.12
2018-06-13T04:52:33.209Z,74.51
2018-06-13T04:52:59.374Z,74.79
2018-06-13T04:53:25.513Z,74.6
2018-06-13T04:53:51.657Z,74.98
2018-06-13T04:54:17.793Z,74.98
2018-06-13T04:54:43.933Z,74.41
2018-06-13T04:55:10.084Z,74.22
2018-06-13T04:55:36.264Z,75.08
2018-06-13T04:56:02.410Z,74.69
2018-06-13T04:56:28.551Z,74.51
2018-06-13T04:56:54.717Z,74.31
2018-06-13T04:57:20.868Z,74.22
2018-06-13T04:57:47.002Z,74.02
2018-06-13T04:58:13.226Z,74.41
2018-06-13T04:58:39.309Z,74.31
2018-06-13T04:59:05.449Z,74.31
2018-06-13T04:59:31.582Z,74.12
2018-06-13T04:59:57.725Z,73.83
2018-06-13T05:00:23.867Z,73.65
2018-06-13T05:00:50.009Z,73.68
2018-06-13T05:01:16.175Z,73.77
2018-06-13T05:01:42.317Z,73.83
2018-06-13T05:02:08.471Z,73.68
2018-06-13T05:02:34.614Z,73.77
2018-06-13T05:03:00.757Z,73.97
2018-06-13T05:03:26.901Z,73.65
2018-06-13T05:03:53.079Z,73.49
2018-06-13T05:04:19.220Z,72.91
2018-06-13T05:04:45.364Z,73.58
2018-06-13T05:05:11.503Z,73.39
2018-06-13T05:05:37.637Z,73.07
2018-06-13T05:06:03.772Z,73.35
2018-06-13T05:06:29.912Z,74.16
2018-06-13T05:06:56.077Z,73.97
2018-06-13T05:07:22.205Z,73.77
2018-06-13T05:07:48.348Z,74.06
2018-06-13T05:08:14.486Z,73.65
2018-06-13T05:08:40.623Z,73.58
2018-06-13T05:09:06.766Z,73.87
2018-06-13T05:09:32.905Z,74.06
2018-06-13T05:09:59.045Z,73.77
2018-06-13T05:10:25.189Z,73.77
2018-06-13T05:10:51.323Z,74.06
2018-06-13T05:11:17.468Z,73.97
2018-06-13T05:11:43.611Z,74.35
2018-06-13T05:12:09.753Z,73.97
2018-06-13T05:12:35.895Z,73.77
2018-06-13T05:13:02.030Z,73.77
2018-06-13T05:13:28.165Z,73.58
2018-06-13T05:13:54.309Z,73.1
2018-06-13T05:14:20.456Z,73.2
2018-06-13T05:14:46.631Z,72.33
2018-06-13T05:15:12.787Z,72.53
2018-06-13T05:15:38.947Z,72.33
2018-06-13T05:16:05.097Z,72.33
2018-06-13T05:16:31.276Z,72.53
2018-06-13T05:16:57.539Z,72.33
2018-06-13T05:17:23.752Z,72.05
2018-06-13T05:17:49.976Z,71.7
2018-06-13T05:18:16.145Z,71.66
2018-06-13T05:18:42.284Z,71.41
2018-06-13T05:19:09.034Z,71.31
2018-06-13T05:19:35.204Z,71.31
2018-06-13T05:20:01.405Z,71.31
2018-06-13T05:20:27.544Z,71.22
2018-06-13T05:20:53.715Z,71.22
2018-06-13T05:21:19.867Z,71.51
2018-06-13T05:21:46.031Z,71.03
2018-06-13T05:22:12.189Z,71.03
2018-06-13T05:22:38.328Z,71.41
2018-06-13T05:23:04.466Z,71.03
2018-06-13T05:23:30.615Z,70.93
2018-06-13T05:23:56.750Z,70.93
2018-06-13T05:24:22.919Z,70.64
2018-06-13T05:24:49.060Z,70.45
2018-06-13T05:25:15.197Z,70.64
2018-06-13T05:25:41.341Z,70.64
2018-06-13T05:26:07.501Z,70.74
2018-06-13T05:26:33.640Z,70.07
2018-06-13T05:26:59.786Z,70.17
2018-06-13T05:27:25.947Z,70.07
2018-06-13T05:27:52.092Z,70.26
2018-06-13T05:28:18.229Z,70.17
2018-06-13T05:28:44.402Z,70.64
2018-06-13T05:29:10.528Z,70.07
2018-06-13T05:29:36.670Z,70.36
2018-06-13T05:30:02.815Z,69.78
2018-06-13T05:30:28.962Z,69.78
2018-06-13T05:30:55.103Z,69.87
2018-06-13T05:31:21.239Z,69.78
2018-06-13T05:31:47.373Z,69.87
2018-06-13T05:32:13.519Z,69.78
2018-06-13T05:32:39.675Z,69.97
2018-06-13T05:33:05.820Z,70.17
2018-06-13T05:33:31.957Z,69.87
2018-06-13T05:33:58.095Z,69.78
2018-06-13T05:34:24.288Z,69.3
2018-06-13T05:34:50.369Z,69.3
2018-06-13T05:35:16.535Z,69.11
2018-06-13T05:35:42.699Z,69.3
2018-06-13T05:36:08.845Z,69.11
2018-06-13T05:36:34.971Z,69.2
2018-06-13T05:37:01.112Z,69.01
2018-06-13T05:37:27.278Z,69.2